There are multiple Weather-warnings   Click here for more information


Meteo18 Weather Cam more information Meteo18 Weather Cam


Thunder radar more information blitzortung!


warning for Snow/Ice more information rain snow radar


Visit our other weather sites:

Template documentation
and downloads

And another site



Weather Underground History page Text

Daily Summary for November 21, 2017 Units:  English    Metric   Both
« Previous Day
Next Day »
Daily Weekly Monthly Yearly Custom
  High: Low: Average:
Temperature: TemperatureC °F 3.3 °F 7.2 °F
Dew Point: DewpointC °F 2.9 °F 6 °F
Humidity: Humidity % 78 % 92 %
Wind Speed: WindSpeedKMH mph 0.0 mph 2 mph
Wind Gust: WindSpeedGustKMH mph - -
Wind:- - SW
Pressure: PressurehPa in 1017.2 in -
Precipitation: 0.0 in    
Historical Graphs
 
 
Tabular Data for November 21, 2017
Time Temperature Dew Point Pressure Wind Wind Speed Wind Gust Humidity Rainfall Rate (Hourly)
TemperatureC °F DewpointC °F PressurehPa in Calm     Humidity % HourlyPrecipMM in
00:02 6.3 °F 5.6 °F 1022.6 in Calm   8.0 mph 95 % 0.0 in
00:12 6.2 °F 5.5 °F 1022.6 in Calm   3.2 mph 95 % 0.0 in
00:22 6.0 °F 5.3 °F 1022.6 in Calm   3.2 mph 95 % 0.0 in
00:52 6.3 °F 5.7 °F 1022.2 in SW 4.8 mph 8.0 mph 96 % 0.0 in
01:12 6.6 °F 6.2 °F 1022.2 in SSW 3.2 mph 11.3 mph 97 % 0.0 in
01:17 6.8 °F 6.4 °F 1022.2 in SW 6.4 mph 11.3 mph 97 % 0.0 in
01:27 7.0 °F 6.6 °F 1022.2 in SW 4.8 mph 14.5 mph 97 % 0.0 in
01:32 7.1 °F 6.7 °F 1022.2 in SW 9.7 mph 14.5 mph 97 % 0.0 in
01:37 7.2 °F 6.8 °F 1022.2 in West 4.8 mph 14.5 mph 97 % 0.0 in
01:42 7.2 °F 6.8 °F 1022.2 in SW 1.6 mph 14.5 mph 97 % 0.0 in
02:02 7.3 °F 6.9 °F 1022.2 in WSW 1.6 mph 8.0 mph 97 % 0.0 in
02:07 7.3 °F 6.9 °F 1022.2 in Calm   8.0 mph 97 % 0.0 in
02:17 7.3 °F 6.9 °F 1022.2 in Calm   4.8 mph 97 % 0.0 in
02:22 7.3 °F 6.9 °F 1022.2 in Calm   3.2 mph 97 % 0.0 in
02:32 7.2 °F 6.8 °F 1021.9 in SSE 1.6 mph 3.2 mph 97 % 0.0 in
02:37 7.2 °F 6.8 °F 1021.9 in Calm   3.2 mph 97 % 0.0 in
02:42 7.3 °F 6.9 °F 1022.2 in Calm   3.2 mph 97 % 0.0 in
02:57 7.3 °F 6.9 °F 1021.9 in SW 3.2 mph 3.2 mph 97 % 0.0 in
03:02 7.3 °F 6.9 °F 1021.9 in WSW 1.6 mph 4.8 mph 97 % 0.0 in
03:07 7.4 °F 7.0 °F 1021.9 in SW 1.6 mph 4.8 mph 97 % 0.0 in
03:12 6.8 °F 6.8 °F 1021.9 in WSW 6.4 mph 6.4 mph 100 % 0.0 in
08:47 3.3 °F 2.9 °F 1021.6 in SSW 1.6 mph 4.8 mph 97 % 0.0 in
08:52 3.3 °F 2.9 °F 1021.6 in SSW 1.6 mph 4.8 mph 97 % 0.0 in
08:57 3.3 °F 2.9 °F 1021.6 in SSW 1.6 mph 8.0 mph 97 % 0.0 in
09:02 3.4 °F 3.0 °F 1021.6 in SSW 3.2 mph 8.0 mph 97 % 0.0 in
09:12 3.4 °F 3.0 °F 1021.6 in South 4.8 mph 8.0 mph 97 % 0.0 in
09:17 3.4 °F 3.0 °F 1021.6 in SW 3.2 mph 6.4 mph 97 % 0.0 in
09:32 3.4 °F 3.0 °F 1021.6 in SSW 6.4 mph 6.4 mph 97 % 0.0 in
09:37 3.4 °F 3.0 °F 1021.6 in SW 3.2 mph 4.8 mph 97 % 0.0 in
09:42 3.4 °F 3.0 °F 1021.6 in SSW 1.6 mph 6.4 mph 97 % 0.0 in
09:52 3.6 °F 3.2 °F 1021.6 in SSW 3.2 mph 6.4 mph 97 % 0.0 in
09:57 3.6 °F 3.2 °F 1021.6 in WSW 4.8 mph 4.8 mph 97 % 0.0 in
10:02 3.6 °F 3.2 °F 1021.6 in SSW 1.6 mph 4.8 mph 97 % 0.0 in
10:07 3.7 °F 3.3 °F 1021.6 in SW 3.2 mph 4.8 mph 97 % 0.0 in
10:17 3.7 °F 3.3 °F 1021.6 in Calm   6.4 mph 97 % 0.0 in
10:22 3.8 °F 3.5 °F 1021.6 in South 1.6 mph 6.4 mph 98 % 0.0 in
10:32 3.9 °F 3.6 °F 1021.6 in SSW 4.8 mph 4.8 mph 98 % 0.0 in
10:42 3.9 °F 3.5 °F 1021.2 in SSW 3.2 mph 8.0 mph 97 % 0.0 in
10:47 4.0 °F 3.6 °F 1021.2 in Calm   8.0 mph 97 % 0.0 in
11:02 4.1 °F 3.7 °F 1021.2 in SW 1.6 mph 6.4 mph 97 % 0.0 in
11:12 4.2 °F 3.8 °F 1021.2 in Calm   6.4 mph 97 % 0.0 in
11:17 4.3 °F 3.9 °F 1021.2 in SW 1.6 mph 6.4 mph 97 % 0.0 in
11:47 5.1 °F 4.8 °F 1020.9 in SW 1.6 mph 6.4 mph 98 % 0.0 in
11:52 5.3 °F 5.0 °F 1020.9 in SSW 4.8 mph 6.4 mph 98 % 0.0 in
11:57 5.6 °F 5.3 °F 1020.9 in SSW 1.6 mph 6.4 mph 98 % 0.0 in
12:02 5.7 °F 5.4 °F 1020.9 in SE 1.6 mph 6.4 mph 98 % 0.0 in
12:12 6.1 °F 5.8 °F 1020.5 in Calm   6.4 mph 98 % 0.0 in
12:32 7.3 °F 7.0 °F 1020.2 in Calm   4.8 mph 98 % 0.0 in
12:52 8.3 °F 8.0 °F 1019.9 in SSW 1.6 mph 4.8 mph 98 % 0.0 in
13:02 8.7 °F 8.4 °F 1019.9 in WSW 4.8 mph 6.4 mph 98 % 0.0 in
13:12 9.1 °F 8.8 °F 1019.9 in SSW 4.8 mph 8.0 mph 98 % 0.0 in
13:17 9.3 °F 8.8 °F 1019.9 in SW 8.0 mph 9.7 mph 97 % 0.0 in
13:22 9.4 °F 8.8 °F 1019.5 in South 3.2 mph 11.3 mph 96 % 0.0 in
13:32 9.9 °F 8.7 °F 1019.5 in WSW 8.0 mph 11.3 mph 92 % 0.0 in
13:47 10.8 °F 7.9 °F 1019.2 in WSW 6.4 mph 16.1 mph 82 % 0.0 in
13:52 10.9 °F 7.8 °F 1019.2 in WSW 8.0 mph 16.1 mph 81 % 0.0 in
13:57 10.9 °F 7.6 °F 1019.2 in SW 6.4 mph 16.1 mph 80 % 0.0 in
14:02 11.2 °F 8.2 °F 1019.2 in SSW 8.0 mph 16.1 mph 82 % 0.0 in
14:07 11.2 °F 7.5 °F 1019.2 in SW 8.0 mph 16.1 mph 78 % 0.0 in
14:12 11.3 °F 7.6 °F 1019.2 in West 8.0 mph 16.1 mph 78 % 0.0 in
14:22 11.2 °F 7.5 °F 1019.2 in SW 6.4 mph 16.1 mph 78 % 0.0 in
14:27 11.2 °F 7.5 °F 1019.2 in SW 4.8 mph 16.1 mph 78 % 0.0 in
14:42 11.3 °F 7.6 °F 1018.8 in SW 4.8 mph 6.4 mph 78 % 0.0 in
14:52 11.3 °F 7.6 °F 1018.8 in SW 8.0 mph 9.7 mph 78 % 0.0 in
15:02 11.4 °F 7.9 °F 1018.8 in WSW 4.8 mph 9.7 mph 79 % 0.0 in
15:12 11.2 °F 7.9 °F 1018.8 in SSW 3.2 mph 9.7 mph 80 % 0.0 in
15:22 11.1 °F 8.3 °F 1018.5 in SW 3.2 mph 9.7 mph 83 % 0.0 in
15:27 11.0 °F 8.2 °F 1018.5 in WSW 1.6 mph 8.0 mph 83 % 0.0 in
15:32 10.9 °F 7.9 °F 1018.8 in SW 1.6 mph 4.8 mph 82 % 0.0 in
15:37 10.9 °F 7.8 °F 1018.5 in WSW 1.6 mph 4.8 mph 81 % 0.0 in
15:42 10.9 °F 7.8 °F 1018.5 in SW 4.8 mph 4.8 mph 81 % 0.0 in
15:47 10.9 °F 7.8 °F 1018.5 in SW 1.6 mph 4.8 mph 81 % 0.0 in
15:52 10.9 °F 7.9 °F 1018.5 in SW 3.2 mph 4.8 mph 82 % 0.0 in
15:57 10.8 °F 7.9 °F 1018.5 in WSW 1.6 mph 4.8 mph 82 % 0.0 in
16:02 10.8 °F 7.9 °F 1018.8 in WSW 1.6 mph 4.8 mph 82 % 0.0 in
16:12 10.8 °F 7.7 °F 1018.5 in SW 1.6 mph 6.4 mph 81 % 0.0 in
16:17 10.7 °F 7.8 °F 1018.5 in SSW 1.6 mph 6.4 mph 82 % 0.0 in
16:22 10.7 °F 7.9 °F 1018.5 in Calm   4.8 mph 83 % 0.0 in
16:27 10.5 °F 7.7 °F 1018.5 in SW 1.6 mph 4.8 mph 83 % 0.0 in
16:32 10.3 °F 7.7 °F 1018.5 in Calm   3.2 mph 84 % 0.0 in
16:37 10.2 °F 7.8 °F 1018.5 in Calm   3.2 mph 85 % 0.0 in
16:42 10.1 °F 7.9 °F 1018.2 in Calm   1.6 mph 86 % 0.0 in
16:47 9.8 °F 7.6 °F 1018.2 in Calm   1.6 mph 86 % 0.0 in
16:52 9.7 °F 7.6 °F 1018.2 in Calm   1.6 mph 87 % 0.0 in
17:02 9.3 °F 7.4 °F 1018.2 in Calm   1.6 mph 88 % 0.0 in
17:12 9.0 °F 7.4 °F 1018.2 in SW 1.6 mph 1.6 mph 90 % 0.0 in
17:17 8.9 °F 7.3 °F 1018.2 in Calm   1.6 mph 90 % 0.0 in
17:22 9.0 °F 7.3 °F 1017.8 in Calm   3.2 mph 89 % 0.0 in
17:42 8.7 °F 7.2 °F 1018.2 in Calm   1.6 mph 90 % 0.0 in
17:57 8.7 °F 7.3 °F 1018.2 in Calm   1.6 mph 91 % 0.0 in
18:02 8.7 °F 7.2 °F 1018.2 in Calm   1.6 mph 90 % 0.0 in
18:07 8.3 °F 6.8 °F 1017.8 in Calm   3.2 mph 90 % 0.0 in
18:17 7.9 °F 6.5 °F 1017.8 in Calm   3.2 mph 91 % 0.0 in
18:27 7.5 °F 6.3 °F 1018.2 in Calm   4.8 mph 92 % 0.0 in
18:32 7.4 °F 6.2 °F 1018.2 in Calm   1.6 mph 92 % 0.0 in
18:52 7.5 °F 6.3 °F 1017.8 in Calm   3.2 mph 92 % 0.0 in
19:02 7.2 °F 6.1 °F 1018.2 in WNW 3.2 mph 3.2 mph 93 % 0.0 in
19:07 7.1 °F 6.0 °F 1018.2 in NNE 1.6 mph 3.2 mph 93 % 0.0 in
19:17 7.1 °F 6.4 °F 1017.8 in Calm   4.8 mph 95 % 0.0 in
19:22 7.3 °F 6.6 °F 1017.8 in Calm   4.8 mph 95 % 0.0 in
19:27 7.2 °F 6.3 °F 1017.8 in Calm   3.2 mph 94 % 0.0 in
19:37 6.8 °F 5.7 °F 1017.8 in Calm   1.6 mph 93 % 0.0 in
19:42 6.7 °F 5.8 °F 1017.8 in Calm     94 % 0.0 in
19:47 6.5 °F 5.6 °F 1017.8 in Calm   1.6 mph 94 % 0.0 in
19:52 6.4 °F 5.5 °F 1017.8 in Calm   1.6 mph 94 % 0.0 in
19:57 6.2 °F 5.3 °F 1017.8 in Calm   1.6 mph 94 % 0.0 in
20:02 6.1 °F 5.2 °F 1017.8 in Calm   1.6 mph 94 % 0.0 in
20:17 6.3 °F 5.6 °F 1017.8 in Calm   1.6 mph 95 % 0.0 in
20:22 6.1 °F 5.4 °F 1017.8 in Calm   1.6 mph 95 % 0.0 in
20:32 5.8 °F 5.1 °F 1017.8 in Calm   1.6 mph 95 % 0.0 in
20:37 6.1 °F 5.5 °F 1017.5 in Calm   1.6 mph 96 % 0.0 in
20:42 6.5 °F 6.1 °F 1017.5 in Calm   1.6 mph 97 % 0.0 in
20:47 6.7 °F 6.1 °F 1017.8 in Calm   1.6 mph 96 % 0.0 in
20:57 6.4 °F 5.5 °F 1017.8 in Calm   3.2 mph 94 % 0.0 in
21:17 5.2 °F 4.3 °F 1017.5 in Calm   1.6 mph 94 % 0.0 in
21:32 4.9 °F 4.2 °F 1017.5 in Calm     95 % 0.0 in
21:52 4.9 °F 4.3 °F 1017.5 in Calm     96 % 0.0 in
22:02 4.9 °F 4.3 °F 1017.5 in Calm     96 % 0.0 in
22:12 4.8 °F 4.2 °F 1017.5 in Calm     96 % 0.0 in
22:22 4.6 °F 4.0 °F 1017.5 in Calm     96 % 0.0 in
22:42 4.5 °F 3.9 °F 1017.5 in Calm     96 % 0.0 in
22:57 4.2 °F 3.6 °F 1017.2 in Calm   1.6 mph 96 % 0.0 in
23:02 4.0 °F 3.4 °F 1017.2 in Calm   1.6 mph 96 % 0.0 in
23:12 3.8 °F 3.2 °F 1017.2 in Calm   1.6 mph 96 % 0.0 in
23:42 4.0 °F 3.6 °F 1017.2 in SSW 1.6 mph 1.6 mph 97 % 0.0 in
23:52 4.0 °F 3.6 °F 1017.2 in Calm   1.6 mph 97 % 0.0 in
Meteo18
Compliments of Weather Underground - 4 mb

Script developed by  Jim McMurry - jmcmurry@mwt.net Adapted for the template by  Wim van der Kuil - Leuven-Template.eu

You find our weather info also at:

European Weather Network

Weather Underground

Equipment we use:

Weather-station
Davis Vue

Weather-program
Meteobridge

Weather-server
Raspberry PI 2 B+

Provider
1 and 1

Davis Vue

Meteobridge

Raspberry PI 2 B+

1 and 1